createdAt,value
2023-02-27T00:00:14.828Z,75.59
2023-02-27T00:02:44.317Z,74.44
2023-02-27T00:05:13.289Z,74.67
2023-02-27T00:07:42.258Z,74.57
2023-02-27T00:10:13.808Z,74.45
2023-02-27T00:12:42.876Z,75.55
2023-02-27T00:15:15.615Z,74.51
2023-02-27T00:17:44.635Z,74.79
2023-02-27T00:20:15.656Z,74.40
2023-02-27T00:22:44.774Z,74.68
2023-02-27T00:25:14.318Z,74.39
2023-02-27T00:27:43.622Z,74.22
2023-02-27T00:30:16.430Z,72.91
2023-02-27T00:32:45.388Z,74.55
2023-02-27T00:35:14.020Z,74.47
2023-02-27T00:37:42.580Z,73.44
2023-02-27T00:40:13.370Z,72.56
2023-02-27T00:42:42.044Z,73.41
2023-02-27T00:45:11.330Z,73.09
2023-02-27T00:47:41.195Z,74.22
2023-02-27T00:50:12.145Z,73.40
2023-02-27T00:52:40.792Z,75.15
2023-02-27T00:55:10.864Z,75.31
2023-02-27T00:57:40.431Z,75.22
2023-02-27T01:00:11.201Z,74.91
2023-02-27T01:02:41.418Z,74.63
2023-02-27T01:05:11.164Z,74.15
2023-02-27T01:07:39.997Z,74.67
2023-02-27T01:10:09.964Z,73.50
2023-02-27T01:12:39.843Z,73.66
2023-02-27T01:15:10.740Z,74.64
2023-02-27T01:17:39.371Z,74.01
2023-02-27T01:20:12.320Z,76.19
2023-02-27T01:22:41.079Z,75.99
2023-02-27T01:25:10.042Z,76.13
2023-02-27T01:27:40.921Z,76.32
2023-02-27T01:30:11.477Z,76.86
2023-02-27T01:32:40.086Z,76.69
2023-02-27T01:35:10.450Z,76.93
2023-02-27T01:37:38.910Z,77.20
2023-02-27T01:40:08.900Z,77.79
2023-02-27T01:42:37.795Z,77.34
2023-02-27T01:45:27.477Z,77.39
2023-02-27T01:48:06.020Z,77.40
2023-02-27T01:50:40.507Z,76.78
2023-02-27T01:53:10.302Z,76.51
2023-02-27T01:55:40.752Z,74.69
2023-02-27T01:58:12.863Z,76.18
2023-02-27T02:00:41.530Z,76.58
2023-02-27T02:03:21.345Z,77.43
2023-02-27T02:05:54.601Z,77.39
2023-02-27T02:08:25.796Z,76.04
2023-02-27T02:10:56.399Z,78.38
2023-02-27T02:13:25.130Z,77.14
2023-02-27T02:16:07.804Z,77.22
2023-02-27T02:18:48.405Z,78.55
2023-02-27T02:22:01.689Z,78.23
2023-02-27T02:25:14.933Z,78.96
2023-02-27T02:27:57.658Z,78.65
2023-02-27T02:30:54.397Z,75.63
2023-02-27T02:34:03.330Z,76.26
2023-02-27T02:37:05.442Z,74.90
2023-02-27T02:39:52.446Z,75.12
2023-02-27T02:42:24.923Z,74.69
2023-02-27T02:45:09.773Z,75.80
2023-02-27T02:47:47.804Z,75.76
2023-02-27T02:50:27.333Z,75.79
2023-02-27T02:53:05.705Z,74.13
2023-02-27T02:55:43.303Z,74.71
2023-02-27T02:58:18.592Z,76.16
2023-02-27T03:00:52.403Z,75.07
2023-02-27T03:03:27.603Z,73.44
2023-02-27T03:06:01.945Z,75.14
2023-02-27T03:08:34.128Z,75.66
2023-02-27T03:11:05.266Z,75.68
2023-02-27T03:13:40.070Z,74.42
2023-02-27T03:16:15.719Z,73.53
2023-02-27T03:18:50.455Z,74.38
2023-02-27T03:21:24.325Z,75.36
2023-02-27T03:23:57.435Z,74.04
2023-02-27T03:26:34.646Z,75.31
2023-02-27T03:29:07.574Z,74.66
2023-02-27T03:31:43.120Z,74.71
2023-02-27T03:34:17.973Z,75.16
2023-02-27T03:36:51.570Z,74.98
2023-02-27T03:39:28.565Z,74.02
2023-02-27T03:42:07.761Z,74.15
2023-02-27T03:45:09.028Z,74.69
2023-02-27T03:47:38.060Z,74.03
2023-02-27T03:50:07.748Z,75.09
2023-02-27T03:52:36.393Z,74.72
2023-02-27T03:55:12.185Z,74.32
2023-02-27T03:57:43.601Z,75.82
2023-02-27T04:00:19.452Z,74.80
2023-02-27T04:02:51.617Z,76.01
2023-02-27T04:05:24.453Z,76.35
2023-02-27T04:08:24.531Z,76.77
2023-02-27T04:11:14.071Z,77.03
2023-02-27T04:13:55.233Z,78.18
2023-02-27T04:16:44.545Z,77.00
2023-02-27T04:19:24.234Z,76.65
2023-02-27T04:22:05.606Z,78.45
2023-02-27T04:24:43.901Z,79.91
2023-02-27T04:27:23.146Z,79.61
2023-02-27T04:30:00.840Z,79.54
2023-02-27T04:32:35.988Z,79.64
2023-02-27T04:35:09.751Z,80.57
2023-02-27T04:37:47.420Z,80.35
2023-02-27T04:40:20.309Z,80.75
2023-02-27T04:42:54.877Z,80.03
2023-02-27T04:45:28.423Z,80.95
2023-02-27T04:48:02.415Z,80.53
2023-02-27T04:50:37.355Z,81.63
2023-02-27T04:53:12.498Z,81.31
2023-02-27T04:55:47.676Z,79.85
2023-02-27T04:58:21.029Z,80.91
2023-02-27T05:00:57.061Z,81.53
2023-02-27T05:03:27.902Z,81.74
2023-02-27T05:06:00.206Z,81.56
2023-02-27T05:08:34.779Z,79.05
2023-02-27T05:11:09.973Z,79.72
2023-02-27T05:13:43.118Z,80.49
2023-02-27T05:16:20.891Z,81.20
2023-02-27T05:18:50.754Z,80.12
2023-02-27T05:21:28.217Z,81.01
2023-02-27T05:24:10.906Z,82.27
2023-02-27T05:26:56.876Z,81.39
2023-02-27T05:29:32.587Z,81.66
2023-02-27T05:32:11.654Z,81.98
2023-02-27T05:34:45.516Z,81.68
2023-02-27T05:37:17.316Z,82.14
2023-02-27T05:39:49.518Z,81.15
2023-02-27T05:42:22.123Z,81.04
2023-02-27T05:44:55.548Z,80.73
2023-02-27T05:47:31.333Z,80.28
2023-02-27T05:50:05.318Z,81.31
2023-02-27T05:52:36.261Z,79.94
2023-02-27T05:55:08.186Z,79.61
2023-02-27T05:57:41.840Z,79.59
2023-02-27T06:00:17.367Z,79.80
2023-02-27T06:02:47.328Z,81.13
2023-02-27T06:05:18.713Z,81.17
2023-02-27T06:07:47.449Z,81.16
2023-02-27T06:10:17.640Z,81.26
2023-02-27T06:12:46.566Z,80.24
2023-02-27T06:15:15.384Z,82.02
2023-02-27T06:17:43.898Z,80.39
2023-02-27T06:20:14.554Z,82.18
2023-02-27T06:22:42.943Z,80.96
2023-02-27T06:25:12.023Z,82.59
2023-02-27T06:27:40.483Z,80.91
2023-02-27T06:30:10.168Z,81.67
2023-02-27T06:32:38.700Z,81.45
2023-02-27T06:35:08.579Z,81.81
2023-02-27T06:37:38.770Z,80.67
2023-02-27T06:40:11.499Z,80.20
2023-02-27T06:42:40.192Z,80.96
2023-02-27T06:45:10.257Z,80.27
2023-02-27T06:47:39.020Z,80.68
2023-02-27T06:50:12.186Z,78.16
2023-02-27T06:52:42.250Z,78.41
2023-02-27T06:55:11.990Z,77.47
2023-02-27T06:57:40.520Z,78.53
2023-02-27T07:00:11.853Z,77.85
2023-02-27T07:02:40.748Z,79.20
2023-02-27T07:05:11.953Z,79.38
2023-02-27T07:07:41.850Z,79.21
2023-02-27T07:10:13.917Z,78.98
2023-02-27T07:12:42.461Z,77.61
2023-02-27T07:15:12.041Z,76.99
2023-02-27T07:17:40.742Z,77.13
2023-02-27T07:20:12.608Z,76.87
2023-02-27T07:22:42.496Z,78.25
2023-02-27T07:25:11.524Z,76.27
2023-02-27T07:27:40.043Z,77.30
2023-02-27T07:30:09.934Z,76.41
2023-02-27T07:32:38.374Z,76.73
2023-02-27T07:35:08.135Z,77.28
2023-02-27T07:37:36.988Z,76.02
2023-02-27T07:40:09.042Z,74.65
2023-02-27T07:42:37.517Z,74.15
2023-02-27T07:45:07.633Z,73.95
2023-02-27T07:47:36.287Z,74.64
2023-02-27T07:50:05.417Z,74.27
2023-02-27T07:52:34.136Z,73.92
2023-02-27T07:55:02.667Z,72.87
2023-02-27T07:57:32.566Z,72.78
2023-02-27T08:00:01.040Z,71.87
2023-02-27T08:02:29.574Z,71.21
2023-02-27T08:04:58.045Z,70.09
2023-02-27T08:07:26.786Z,71.20
2023-02-27T08:09:55.247Z,70.33
2023-02-27T08:12:24.155Z,69.56
2023-02-27T08:14:54.119Z,67.31
2023-02-27T08:17:22.659Z,64.18
2023-02-27T08:19:51.099Z,65.39
2023-02-27T08:22:19.586Z,64.49
2023-02-27T08:24:48.193Z,62.46
2023-02-27T08:27:16.599Z,62.07
2023-02-27T08:29:45.528Z,62.20
2023-02-27T08:32:15.497Z,61.25
2023-02-27T08:34:43.978Z,62.22
2023-02-27T08:37:12.523Z,61.25
2023-02-27T08:39:40.988Z,61.42
2023-02-27T08:42:10.062Z,59.66
2023-02-27T08:44:38.623Z,63.29
2023-02-27T08:47:07.118Z,63.67
2023-02-27T08:49:37.058Z,64.32
2023-02-27T08:52:05.605Z,63.92
2023-02-27T08:54:34.041Z,63.82
2023-02-27T08:57:02.630Z,62.99
2023-02-27T08:59:31.357Z,61.71
2023-02-27T09:02:00.045Z,61.58
2023-02-27T09:04:28.762Z,61.46
2023-02-27T09:06:58.606Z,59.28
2023-02-27T09:09:27.449Z,60.10
2023-02-27T09:11:56.022Z,59.07
2023-02-27T09:14:25.095Z,56.62
2023-02-27T09:16:53.661Z,54.31
2023-02-27T09:19:22.360Z,52.51
2023-02-27T09:21:50.833Z,50.70
2023-02-27T09:24:21.123Z,50.23
2023-02-27T09:26:49.844Z,50.13
2023-02-27T09:29:18.732Z,48.19
2023-02-27T09:31:47.349Z,47.51
2023-02-27T09:34:15.889Z,48.06
2023-02-27T09:36:44.379Z,47.31
2023-02-27T09:39:12.835Z,47.24
2023-02-27T09:41:57.264Z,46.18
2023-02-27T09:44:45.737Z,45.97
2023-02-27T09:47:20.428Z,47.02
2023-02-27T09:50:00.408Z,46.64
2023-02-27T09:52:30.214Z,44.51
2023-02-27T09:54:59.072Z,45.29
2023-02-27T09:57:43.741Z,45.19
2023-02-27T10:00:28.191Z,44.93
2023-02-27T10:03:02.954Z,44.73
2023-02-27T10:05:38.493Z,45.30
2023-02-27T10:08:15.646Z,44.58
2023-02-27T10:10:51.319Z,43.42
2023-02-27T10:13:50.393Z,46.24
2023-02-27T10:16:21.899Z,46.08
2023-02-27T10:18:57.987Z,44.75
2023-02-27T10:21:34.231Z,45.29
2023-02-27T10:24:07.866Z,44.96
2023-02-27T10:26:40.484Z,43.63
2023-02-27T10:29:24.237Z,43.10
2023-02-27T10:32:01.303Z,42.57
2023-02-27T10:34:32.001Z,42.19
2023-02-27T10:37:03.497Z,42.39
2023-02-27T10:39:37.508Z,43.15
2023-02-27T10:42:10.411Z,41.20
2023-02-27T10:44:40.324Z,43.75
2023-02-27T10:47:13.943Z,42.62
2023-02-27T10:49:43.849Z,41.95
2023-02-27T10:52:14.614Z,43.47
2023-02-27T10:54:44.000Z,44.26
2023-02-27T10:57:26.201Z,45.01
2023-02-27T10:59:58.779Z,46.36
2023-02-27T11:02:33.793Z,47.98
2023-02-27T11:05:02.586Z,47.46
2023-02-27T11:07:33.877Z,47.70
2023-02-27T11:10:16.108Z,48.22
2023-02-27T11:12:59.519Z,48.65
2023-02-27T11:15:31.553Z,48.97
2023-02-27T11:18:25.720Z,47.26
2023-02-27T11:20:54.732Z,47.40
2023-02-27T11:23:24.903Z,45.82
2023-02-27T11:26:12.071Z,49.32
2023-02-27T11:28:40.443Z,49.15
2023-02-27T11:31:20.187Z,50.74
2023-02-27T11:33:52.203Z,49.74
2023-02-27T11:36:23.524Z,49.60
2023-02-27T11:38:54.241Z,50.77
2023-02-27T11:41:31.915Z,49.59
2023-02-27T11:44:02.971Z,48.18
2023-02-27T11:46:47.328Z,47.94
2023-02-27T11:49:33.307Z,46.35
2023-02-27T11:52:11.526Z,45.48
2023-02-27T11:54:44.396Z,47.30
2023-02-27T11:57:24.625Z,47.30
2023-02-27T11:59:59.320Z,47.32
2023-02-27T12:02:39.436Z,49.54
2023-02-27T12:05:15.337Z,48.91
2023-02-27T12:07:49.917Z,48.55
2023-02-27T12:10:21.284Z,49.12
2023-02-27T12:12:54.238Z,49.21
2023-02-27T12:15:28.751Z,49.77
2023-02-27T12:18:08.016Z,49.76
2023-02-27T12:20:41.556Z,48.84
2023-02-27T12:23:18.976Z,46.86
2023-02-27T12:25:52.598Z,48.21
2023-02-27T12:28:34.191Z,47.25
2023-02-27T12:31:14.124Z,49.40
2023-02-27T12:33:50.862Z,48.01
2023-02-27T12:38:16.441Z,43.60
2023-02-27T12:40:52.600Z,45.57
2023-02-27T12:43:32.132Z,43.91
2023-02-27T12:46:22.126Z,44.05
2023-02-27T12:49:06.022Z,46.43
2023-02-27T12:54:20.996Z,45.56
2023-02-27T12:57:02.042Z,46.87
2023-02-27T12:59:44.421Z,48.49
2023-02-27T13:02:30.697Z,49.00
2023-02-27T13:05:08.956Z,48.71
2023-02-27T13:07:44.836Z,48.86
2023-02-27T13:10:19.953Z,49.73
2023-02-27T13:12:54.865Z,48.69
2023-02-27T13:15:27.049Z,48.33
2023-02-27T13:18:00.341Z,47.61
2023-02-27T13:20:37.274Z,46.09
2023-02-27T13:23:17.236Z,46.49
2023-02-27T13:25:51.076Z,46.09
2023-02-27T13:28:24.102Z,47.60
2023-02-27T13:31:03.092Z,47.31
2023-02-27T13:33:39.699Z,48.09
2023-02-27T13:36:14.372Z,48.59
2023-02-27T13:38:45.020Z,48.10
2023-02-27T13:41:42.098Z,49.25
2023-02-27T13:44:42.007Z,50.26
2023-02-27T13:47:40.000Z,49.30
2023-02-27T13:50:45.665Z,49.50
2023-02-27T13:53:21.465Z,49.36
2023-02-27T13:55:51.309Z,49.56
2023-02-27T13:58:25.394Z,51.16
2023-02-27T14:00:58.355Z,51.42
2023-02-27T14:03:30.104Z,52.10
2023-02-27T14:06:03.591Z,51.33
2023-02-27T14:08:38.437Z,51.73
2023-02-27T14:11:18.487Z,51.67
2023-02-27T14:14:05.066Z,51.39
2023-02-27T14:16:52.953Z,51.33
2023-02-27T14:19:50.312Z,51.72
2023-02-27T14:23:09.596Z,51.57
2023-02-27T14:25:43.065Z,50.76
2023-02-27T14:28:21.472Z,50.52
2023-02-27T14:30:57.435Z,52.02
2023-02-27T14:33:39.688Z,51.85
2023-02-27T14:36:16.789Z,52.10
2023-02-27T14:38:45.430Z,51.04
2023-02-27T14:41:26.645Z,51.37
2023-02-27T14:43:57.587Z,51.73
2023-02-27T14:46:31.114Z,51.68
2023-02-27T14:49:01.766Z,52.07
2023-02-27T14:51:32.871Z,52.08
2023-02-27T14:54:04.233Z,51.61
2023-02-27T14:56:33.619Z,52.39
2023-02-27T14:59:04.650Z,51.05
2023-02-27T15:01:38.509Z,49.26
2023-02-27T15:05:27.981Z,50.39
2023-02-27T15:07:56.745Z,49.61
2023-02-27T15:10:30.994Z,50.38
2023-02-27T15:13:00.904Z,49.39
2023-02-27T15:15:29.871Z,50.66
2023-02-27T15:17:59.271Z,50.91
2023-02-27T15:20:32.197Z,52.14
2023-02-27T15:23:02.631Z,52.14
2023-02-27T15:25:33.661Z,52.23
2023-02-27T15:28:04.394Z,51.86
2023-02-27T15:30:33.510Z,51.91
2023-02-27T15:33:03.014Z,51.14
2023-02-27T15:35:37.908Z,51.97
2023-02-27T15:38:07.597Z,51.31
2023-02-27T15:40:37.348Z,51.04
2023-02-27T15:43:06.246Z,52.28
2023-02-27T15:45:36.851Z,50.67
2023-02-27T15:48:06.279Z,52.66
2023-02-27T15:50:38.594Z,50.19
2023-02-27T15:55:03.867Z,51.81
2023-02-27T15:57:33.673Z,50.84
2023-02-27T16:00:02.347Z,49.90
2023-02-27T16:02:45.846Z,49.84
2023-02-27T16:05:19.578Z,50.30
2023-02-27T16:07:49.777Z,51.28
2023-02-27T16:10:22.839Z,49.65
2023-02-27T16:12:51.508Z,50.66
2023-02-27T16:15:30.891Z,51.04
2023-02-27T16:18:01.925Z,51.73
2023-02-27T16:20:47.887Z,53.46
2023-02-27T16:23:21.346Z,52.63
2023-02-27T16:26:21.662Z,52.73
2023-02-27T16:28:53.143Z,51.33
2023-02-27T16:31:26.376Z,50.71
2023-02-27T16:33:57.018Z,51.35
2023-02-27T16:36:27.904Z,51.95
2023-02-27T16:38:56.862Z,51.69
2023-02-27T16:41:26.773Z,50.63
2023-02-27T16:43:55.670Z,51.03
2023-02-27T16:46:24.154Z,51.34
2023-02-27T16:48:54.571Z,52.38
2023-02-27T16:51:24.161Z,51.18
2023-02-27T16:53:53.907Z,52.38
2023-02-27T16:56:37.415Z,51.40
2023-02-27T16:59:08.535Z,52.04
2023-02-27T17:01:37.037Z,51.71
2023-02-27T17:04:16.479Z,52.26
2023-02-27T17:06:52.598Z,53.79
2023-02-27T17:09:21.390Z,55.34
2023-02-27T17:11:50.190Z,55.53
2023-02-27T17:14:20.074Z,55.11
2023-02-27T17:16:48.660Z,55.49
2023-02-27T17:19:17.467Z,54.40
2023-02-27T17:21:46.000Z,54.77
2023-02-27T17:24:14.736Z,53.01
2023-02-27T17:26:43.240Z,52.67
2023-02-27T17:29:12.096Z,52.92
2023-02-27T17:31:44.714Z,54.85
2023-02-27T17:34:13.329Z,54.20
2023-02-27T17:36:42.064Z,54.11
2023-02-27T17:39:13.782Z,54.20
2023-02-27T17:41:43.726Z,53.16
2023-02-27T17:44:12.604Z,52.58
2023-02-27T17:46:42.446Z,53.61
2023-02-27T17:49:10.856Z,54.82
2023-02-27T17:51:39.212Z,54.25
2023-02-27T17:54:08.158Z,53.78
2023-02-27T17:56:37.143Z,54.13
2023-02-27T17:59:07.576Z,53.37
2023-02-27T18:01:36.775Z,54.46
2023-02-27T18:04:07.962Z,53.71
2023-02-27T18:06:36.458Z,54.89
2023-02-27T18:09:05.419Z,54.54
2023-02-27T18:11:33.897Z,54.53
2023-02-27T18:14:02.273Z,54.61
2023-02-27T18:16:31.317Z,54.42
2023-02-27T18:19:03.256Z,54.24
2023-02-27T18:21:34.183Z,54.10
2023-02-27T18:24:02.789Z,54.35
2023-02-27T18:26:33.361Z,55.13
2023-02-27T18:29:04.514Z,54.61
2023-02-27T18:31:35.211Z,54.36
2023-02-27T18:34:03.887Z,54.30
2023-02-27T18:36:34.604Z,55.05
2023-02-27T18:39:04.877Z,55.54
2023-02-27T18:41:33.329Z,55.46
2023-02-27T18:44:01.914Z,55.36
2023-02-27T18:46:30.720Z,55.56
2023-02-27T18:48:59.934Z,56.21
2023-02-27T18:51:28.793Z,55.55
2023-02-27T18:54:00.000Z,56.24
2023-02-27T18:56:30.489Z,56.39
2023-02-27T18:59:02.172Z,56.02
2023-02-27T19:01:32.823Z,56.70
2023-02-27T19:04:03.728Z,55.79
2023-02-27T19:06:33.133Z,54.96
2023-02-27T19:09:05.431Z,55.16
2023-02-27T19:11:35.416Z,55.04
2023-02-27T19:14:05.769Z,55.13
2023-02-27T19:16:34.574Z,55.09
2023-02-27T19:19:04.813Z,54.68
2023-02-27T19:21:34.228Z,55.32
2023-02-27T19:24:04.329Z,55.61
2023-02-27T19:26:34.654Z,56.32
2023-02-27T19:29:03.458Z,55.38
2023-02-27T19:31:32.738Z,56.02
2023-02-27T19:34:01.866Z,56.01
2023-02-27T19:36:31.430Z,56.82
2023-02-27T19:39:00.260Z,56.67
2023-02-27T19:41:32.441Z,55.95
2023-02-27T19:44:01.944Z,56.35
2023-02-27T19:46:33.328Z,56.73
2023-02-27T19:49:04.293Z,57.50
2023-02-27T19:51:32.877Z,57.01
2023-02-27T19:54:01.569Z,56.73
2023-02-27T19:56:31.914Z,56.91
2023-02-27T19:59:00.886Z,57.12
2023-02-27T20:01:32.536Z,57.52
2023-02-27T20:04:01.921Z,57.10
2023-02-27T20:06:33.843Z,57.18
2023-02-27T20:09:02.313Z,57.54
2023-02-27T20:11:32.612Z,57.83
2023-02-27T20:14:01.651Z,57.70
2023-02-27T20:16:34.232Z,57.88
2023-02-27T20:19:03.561Z,58.87
2023-02-27T20:21:33.148Z,58.09
2023-02-27T20:24:02.073Z,58.59
2023-02-27T20:26:33.620Z,58.97
2023-02-27T20:29:04.700Z,59.01
2023-02-27T20:31:35.242Z,59.05
2023-02-27T20:34:05.962Z,59.20
2023-02-27T20:36:35.641Z,58.58
2023-02-27T20:39:05.282Z,59.09
2023-02-27T20:41:36.790Z,59.01
2023-02-27T20:44:08.093Z,59.80
2023-02-27T20:46:37.538Z,59.50
2023-02-27T20:49:07.358Z,60.23
2023-02-27T20:51:38.462Z,59.85
2023-02-27T20:54:09.153Z,59.54
2023-02-27T20:56:41.465Z,59.47
2023-02-27T20:59:14.507Z,60.07
2023-02-27T21:01:51.318Z,59.67
2023-02-27T21:04:21.971Z,59.19
2023-02-27T21:06:51.004Z,59.53
2023-02-27T21:09:19.814Z,60.38
2023-02-27T21:11:49.612Z,60.69
2023-02-27T21:14:18.014Z,60.75
2023-02-27T21:16:46.471Z,60.96
2023-02-27T21:19:14.940Z,61.28
2023-02-27T21:21:43.358Z,61.56
2023-02-27T21:24:11.861Z,61.50
2023-02-27T21:26:40.423Z,61.50
2023-02-27T21:29:12.289Z,62.32
2023-02-27T21:31:42.308Z,62.62
2023-02-27T21:34:14.882Z,63.67
2023-02-27T21:36:44.682Z,62.93
2023-02-27T21:39:15.072Z,62.42
2023-02-27T21:41:43.524Z,63.80
2023-02-27T21:44:16.621Z,64.51
2023-02-27T21:46:46.116Z,64.45
2023-02-27T21:49:17.924Z,65.04
2023-02-27T21:51:47.086Z,64.84
2023-02-27T21:54:17.156Z,64.50
2023-02-27T21:56:47.319Z,65.04
2023-02-27T21:59:18.320Z,64.70
2023-02-27T22:01:48.255Z,64.27
2023-02-27T22:04:18.142Z,64.65
2023-02-27T22:06:47.353Z,64.24
2023-02-27T22:09:15.974Z,64.68
2023-02-27T22:11:44.811Z,64.11
2023-02-27T22:14:13.841Z,63.40
2023-02-27T22:16:44.058Z,64.29
2023-02-27T22:19:18.792Z,64.87
2023-02-27T22:21:47.346Z,64.46
2023-02-27T22:24:16.158Z,65.35
2023-02-27T22:26:45.733Z,66.60
2023-02-27T22:29:14.671Z,66.80
2023-02-27T22:31:44.747Z,65.02
2023-02-27T22:34:17.943Z,65.39
2023-02-27T22:36:52.038Z,66.94
2023-02-27T22:39:21.229Z,66.78
2023-02-27T22:41:49.718Z,65.60
2023-02-27T22:44:18.327Z,66.21
2023-02-27T22:46:50.591Z,65.77
2023-02-27T22:49:21.141Z,65.94
2023-02-27T22:51:51.106Z,65.79
2023-02-27T22:54:21.347Z,65.35
2023-02-27T22:56:51.762Z,65.09
2023-02-27T22:59:20.400Z,66.27
2023-02-27T23:01:51.494Z,66.25
2023-02-27T23:04:22.066Z,65.28
2023-02-27T23:06:52.844Z,65.71
2023-02-27T23:09:24.130Z,65.90
2023-02-27T23:11:52.698Z,65.74
2023-02-27T23:14:21.502Z,66.11
2023-02-27T23:16:51.396Z,66.43
2023-02-27T23:19:21.846Z,66.46
2023-02-27T23:21:50.341Z,65.46
2023-02-27T23:24:20.184Z,65.66
2023-02-27T23:26:50.926Z,66.85
2023-02-27T23:29:19.600Z,66.74
2023-02-27T23:31:48.199Z,66.62
2023-02-27T23:34:18.089Z,66.40
2023-02-27T23:36:46.552Z,67.28
2023-02-27T23:39:15.042Z,66.38
2023-02-27T23:41:43.502Z,67.71
2023-02-27T23:44:29.610Z,67.36
2023-02-27T23:46:58.074Z,66.86
2023-02-27T23:49:27.840Z,66.13
2023-02-27T23:51:56.253Z,66.42
2023-02-27T23:54:24.674Z,66.36
2023-02-27T23:56:53.167Z,67.47
2023-02-27T23:59:21.642Z,67.52
